createdAt,value
2023-09-29T00:00:19.754Z,7.00
2023-09-29T00:02:49.309Z,6.50
2023-09-29T00:05:19.822Z,6.53
2023-09-29T00:07:47.709Z,6.45
2023-09-29T00:10:18.901Z,6.70
2023-09-29T00:12:47.277Z,6.32
2023-09-29T00:15:14.641Z,6.68
2023-09-29T00:17:42.048Z,6.10
2023-09-29T00:20:20.988Z,6.75
2023-09-29T00:22:48.282Z,6.73
2023-09-29T00:25:15.438Z,6.38
2023-09-29T00:27:42.482Z,6.65
2023-09-29T00:30:11.181Z,6.38
2023-09-29T00:32:38.317Z,6.47
2023-09-29T00:35:07.835Z,6.57
2023-09-29T00:37:34.804Z,7.40
2023-09-29T00:40:01.956Z,6.93
2023-09-29T00:42:29.166Z,7.20
2023-09-29T00:44:56.549Z,7.03
2023-09-29T00:47:23.685Z,6.50
2023-09-29T00:49:50.796Z,6.40
2023-09-29T00:52:18.982Z,6.97
2023-09-29T00:54:47.384Z,6.70
2023-09-29T00:57:15.183Z,6.80
2023-09-29T00:59:43.020Z,6.60
2023-09-29T01:02:11.694Z,6.43
2023-09-29T01:04:40.209Z,6.70
2023-09-29T01:07:08.940Z,6.68
2023-09-29T01:09:35.932Z,6.70
2023-09-29T01:12:05.159Z,6.47
2023-09-29T01:14:32.265Z,7.05
2023-09-29T01:16:59.572Z,7.00
2023-09-29T01:19:26.605Z,7.22
2023-09-29T01:21:53.923Z,6.78
2023-09-29T01:24:22.710Z,6.67
2023-09-29T01:26:50.390Z,6.68
2023-09-29T01:29:17.492Z,6.43
2023-09-29T01:31:45.562Z,7.00
2023-09-29T01:34:13.980Z,7.15
2023-09-29T01:36:40.972Z,7.00
2023-09-29T01:39:08.138Z,6.82
2023-09-29T01:41:35.235Z,6.97
2023-09-29T01:44:02.386Z,7.00
2023-09-29T01:46:30.659Z,6.80
2023-09-29T01:48:58.607Z,7.20
2023-09-29T01:51:30.010Z,6.95
2023-09-29T01:53:57.241Z,6.55
2023-09-29T01:56:25.227Z,7.28
2023-09-29T01:58:52.389Z,6.80
2023-09-29T02:01:19.432Z,6.57
2023-09-29T02:03:49.433Z,6.93
2023-09-29T02:06:17.200Z,7.15
2023-09-29T02:08:45.577Z,7.03
2023-09-29T02:11:13.524Z,6.95
2023-09-29T02:13:40.664Z,6.97
2023-09-29T02:16:12.994Z,7.82
2023-09-29T02:18:40.202Z,6.95
2023-09-29T02:21:09.293Z,6.60
2023-09-29T02:23:37.992Z,6.88
2023-09-29T02:26:05.471Z,6.53
2023-09-29T02:28:33.135Z,6.82
2023-09-29T02:31:01.388Z,6.53
2023-09-29T02:33:29.535Z,6.85
2023-09-29T02:35:57.787Z,6.72
2023-09-29T02:38:25.501Z,6.60
2023-09-29T02:40:55.410Z,6.78
2023-09-29T02:43:22.711Z,6.43
2023-09-29T02:45:49.783Z,6.30
2023-09-29T02:48:17.193Z,6.47
2023-09-29T02:50:44.398Z,6.43
2023-09-29T02:53:11.669Z,6.70
2023-09-29T02:55:38.868Z,6.35
2023-09-29T02:58:05.943Z,6.25
2023-09-29T03:00:33.004Z,6.60
2023-09-29T03:03:01.969Z,7.20
2023-09-29T03:05:29.273Z,6.57
2023-09-29T03:07:59.054Z,6.93
2023-09-29T03:10:29.888Z,6.32
2023-09-29T03:12:58.820Z,6.40
2023-09-29T03:15:26.671Z,6.70
2023-09-29T03:17:58.983Z,6.53
2023-09-29T03:20:26.953Z,6.50
2023-09-29T03:22:53.959Z,6.50
2023-09-29T03:25:22.251Z,6.82
2023-09-29T03:27:49.572Z,7.37
2023-09-29T03:30:17.255Z,6.78
2023-09-29T03:32:45.432Z,6.68
2023-09-29T03:35:14.997Z,6.47
2023-09-29T03:37:44.999Z,6.38
2023-09-29T03:40:12.942Z,6.27
2023-09-29T03:42:43.320Z,6.50
2023-09-29T03:45:12.681Z,6.60
2023-09-29T03:47:40.325Z,6.75
2023-09-29T03:50:13.001Z,6.80
2023-09-29T03:52:42.322Z,6.97
2023-09-29T03:55:13.674Z,6.47
2023-09-29T03:57:42.723Z,7.03
2023-09-29T04:00:13.644Z,6.13
2023-09-29T04:02:42.130Z,5.75
2023-09-29T04:05:10.757Z,6.63
2023-09-29T04:07:40.837Z,7.30
2023-09-29T04:10:16.649Z,6.95
2023-09-29T04:12:48.461Z,6.30
2023-09-29T04:15:16.631Z,6.70
2023-09-29T04:17:43.892Z,6.53
2023-09-29T04:20:12.414Z,6.45
2023-09-29T04:22:39.758Z,7.13
2023-09-29T04:25:13.450Z,6.03
2023-09-29T04:27:41.572Z,6.45
2023-09-29T04:30:10.333Z,6.13
2023-09-29T04:32:37.821Z,6.18
2023-09-29T04:35:06.392Z,6.50
2023-09-29T04:37:33.476Z,6.50
2023-09-29T04:40:00.472Z,5.97
2023-09-29T04:42:27.862Z,6.37
2023-09-29T04:44:54.820Z,7.20
2023-09-29T04:47:24.223Z,6.18
2023-09-29T04:49:51.301Z,6.53
2023-09-29T04:52:18.862Z,6.82
2023-09-29T04:54:45.896Z,6.77
2023-09-29T04:57:12.896Z,6.45
2023-09-29T04:59:40.145Z,6.20
2023-09-29T05:02:07.299Z,6.13
2023-09-29T05:04:34.342Z,6.72
2023-09-29T05:07:01.458Z,6.57
2023-09-29T05:09:28.514Z,5.95
2023-09-29T05:11:55.639Z,6.70
2023-09-29T05:14:22.665Z,6.53
2023-09-29T05:16:51.253Z,6.70
2023-09-29T05:19:18.466Z,6.27
2023-09-29T05:21:45.540Z,6.25
2023-09-29T05:24:12.597Z,6.38
2023-09-29T05:26:39.746Z,6.53
2023-09-29T05:29:06.784Z,5.97
2023-09-29T05:31:33.757Z,7.37
2023-09-29T05:34:00.709Z,6.28
2023-09-29T05:36:28.586Z,6.57
2023-09-29T05:38:55.919Z,6.60
2023-09-29T05:41:23.753Z,6.43
2023-09-29T05:43:50.936Z,6.23
2023-09-29T05:46:18.071Z,5.93
2023-09-29T05:48:45.147Z,6.22
2023-09-29T05:51:12.668Z,6.43
2023-09-29T05:53:39.723Z,7.10
2023-09-29T05:56:10.052Z,6.47
2023-09-29T05:58:40.980Z,6.68
2023-09-29T06:01:19.950Z,6.47
2023-09-29T06:04:05.251Z,6.70
2023-09-29T06:06:32.367Z,6.63
2023-09-29T06:09:00.382Z,5.73
2023-09-29T06:11:27.482Z,6.20
2023-09-29T06:13:54.960Z,6.18
2023-09-29T06:16:22.141Z,6.15
2023-09-29T06:18:49.327Z,5.80
2023-09-29T06:21:17.680Z,6.67
2023-09-29T06:23:45.180Z,6.15
2023-09-29T06:26:12.281Z,6.20
2023-09-29T06:28:39.879Z,5.95
2023-09-29T06:31:07.452Z,6.13
2023-09-29T06:33:34.700Z,5.90
2023-09-29T06:36:02.333Z,6.10
2023-09-29T06:38:30.859Z,6.05
2023-09-29T06:41:02.154Z,6.25
2023-09-29T06:43:30.054Z,5.85
2023-09-29T06:49:57.743Z,6.20
2023-09-29T06:52:26.546Z,6.20
2023-09-29T06:54:54.762Z,5.90
2023-09-29T06:57:22.329Z,5.75
2023-09-29T06:59:50.051Z,5.83
2023-09-29T07:02:18.748Z,6.35
2023-09-29T07:04:49.132Z,5.63
2023-09-29T07:07:19.090Z,5.15
2023-09-29T07:09:46.723Z,5.60
2023-09-29T07:12:14.213Z,5.93
2023-09-29T07:14:41.621Z,6.60
2023-09-29T07:17:09.043Z,5.90
2023-09-29T07:19:45.485Z,6.00
2023-09-29T07:22:19.890Z,5.82
2023-09-29T07:24:47.647Z,5.50
2023-09-29T07:27:15.031Z,6.18
2023-09-29T07:29:51.812Z,6.18
2023-09-29T07:41:15.723Z,5.47
2023-09-29T07:43:45.493Z,5.63
2023-09-29T07:51:24.942Z,5.38
2023-09-29T08:00:50.022Z,5.68
2023-09-29T08:32:17.054Z,5.47
2023-09-29T08:34:44.663Z,5.60
2023-09-29T08:42:17.410Z,5.55
2023-09-29T08:44:54.692Z,5.18
2023-09-29T08:51:54.414Z,5.25
2023-09-29T08:54:28.422Z,5.93
2023-09-29T08:56:59.934Z,5.75
2023-09-29T08:59:29.734Z,5.13
2023-09-29T09:02:07.572Z,5.23
2023-09-29T09:09:06.980Z,5.20
2023-09-29T09:11:47.115Z,5.15
2023-09-29T09:14:15.136Z,4.80
2023-09-29T09:16:43.255Z,4.90
2023-09-29T09:19:17.089Z,5.68
2023-09-29T09:21:47.584Z,5.70
2023-09-29T09:24:33.688Z,4.95
2023-09-29T09:27:06.884Z,5.10
2023-09-29T09:29:42.318Z,5.37
2023-09-29T09:32:12.153Z,4.38
2023-09-29T09:34:40.756Z,5.10
2023-09-29T09:37:09.072Z,4.30
2023-09-29T09:39:53.822Z,5.25
2023-09-29T09:42:26.111Z,5.10
2023-09-29T09:44:58.491Z,4.80
2023-09-29T09:47:29.152Z,5.10
2023-09-29T09:49:58.584Z,5.30
2023-09-29T09:52:32.079Z,5.15
2023-09-29T09:55:05.902Z,4.67
2023-09-29T09:57:39.748Z,5.40
2023-09-29T10:00:12.232Z,4.65
2023-09-29T10:02:47.269Z,5.13
2023-09-29T10:05:24.220Z,5.00
2023-09-29T10:07:52.749Z,5.50
2023-09-29T10:10:35.359Z,4.45
2023-09-29T10:13:06.840Z,4.97
2023-09-29T10:15:34.519Z,4.70
2023-09-29T10:18:05.228Z,5.63
2023-09-29T10:20:35.062Z,4.60
2023-09-29T10:23:09.476Z,5.03
2023-09-29T10:25:38.364Z,4.60
2023-09-29T10:28:07.843Z,4.90
2023-09-29T10:34:35.671Z,4.90
2023-09-29T10:37:09.511Z,4.70
2023-09-29T10:39:37.340Z,4.30
2023-09-29T10:42:15.970Z,4.70
2023-09-29T10:45:01.742Z,4.68
2023-09-29T10:47:38.506Z,4.47
2023-09-29T10:50:12.735Z,4.10
2023-09-29T10:52:41.946Z,4.18
2023-09-29T10:55:18.909Z,4.15
2023-09-29T10:58:06.103Z,4.00
2023-09-29T11:00:50.821Z,3.90
2023-09-29T11:03:27.606Z,4.25
2023-09-29T11:06:10.448Z,4.28
2023-09-29T11:08:44.405Z,4.13
2023-09-29T11:11:12.035Z,4.43
2023-09-29T11:13:39.425Z,4.30
2023-09-29T11:16:20.302Z,4.28
2023-09-29T11:18:50.592Z,3.95
2023-09-29T11:21:21.365Z,4.10
2023-09-29T11:23:51.365Z,4.50
2023-09-29T11:26:18.771Z,4.20
2023-09-29T11:28:56.019Z,4.40
2023-09-29T11:31:26.372Z,4.18
2023-09-29T11:33:57.911Z,4.47
2023-09-29T11:36:28.751Z,4.10
2023-09-29T11:38:56.528Z,4.00
2023-09-29T11:41:23.931Z,4.30
2023-09-29T11:43:51.578Z,4.97
2023-09-29T11:46:19.644Z,4.35
2023-09-29T11:48:47.789Z,3.97
2023-09-29T11:51:18.286Z,4.20
2023-09-29T11:53:45.822Z,13.90
2023-09-29T11:56:16.223Z,5.10
2023-09-29T11:58:47.311Z,3.47
2023-09-29T12:01:16.225Z,4.15
2023-09-29T12:03:43.867Z,4.07
2023-09-29T12:06:11.435Z,3.95
2023-09-29T12:08:38.856Z,4.25
2023-09-29T12:11:09.312Z,4.10
2023-09-29T12:13:41.064Z,4.28
2023-09-29T12:16:11.737Z,4.83
2023-09-29T12:18:41.192Z,4.40
2023-09-29T12:21:10.414Z,3.95
2023-09-29T12:24:23.726Z,3.78
2023-09-29T12:26:51.108Z,4.25
2023-09-29T12:29:18.450Z,3.90
2023-09-29T12:31:45.893Z,3.88
2023-09-29T12:34:13.060Z,4.13
2023-09-29T12:36:40.227Z,4.20
2023-09-29T12:39:10.570Z,4.00
2023-09-29T12:41:39.316Z,3.90
2023-09-29T12:44:07.055Z,4.05
2023-09-29T12:46:35.670Z,4.53
2023-09-29T12:49:05.216Z,4.18
2023-09-29T12:51:42.469Z,4.10
2023-09-29T12:54:21.177Z,4.17
2023-09-29T12:56:56.160Z,3.88
2023-09-29T12:59:31.010Z,4.40
2023-09-29T13:01:58.449Z,4.13
2023-09-29T13:04:30.498Z,3.97
2023-09-29T13:06:59.748Z,4.50
2023-09-29T13:09:28.339Z,4.20
2023-09-29T13:11:58.113Z,3.80
2023-09-29T13:14:25.569Z,3.88
2023-09-29T13:16:53.567Z,4.18
2023-09-29T13:19:23.706Z,3.67
2023-09-29T13:21:53.011Z,3.60
2023-09-29T13:24:20.337Z,3.88
2023-09-29T13:26:48.409Z,3.85
2023-09-29T13:29:21.484Z,3.83
2023-09-29T13:31:48.981Z,4.20
2023-09-29T13:34:19.066Z,4.30
2023-09-29T13:36:46.847Z,4.07
2023-09-29T13:39:14.806Z,3.85
2023-09-29T13:41:42.042Z,3.95
2023-09-29T13:44:09.671Z,3.40
2023-09-29T13:46:45.170Z,4.50
2023-09-29T13:49:23.865Z,3.70
2023-09-29T13:51:50.994Z,4.00
2023-09-29T13:54:18.360Z,3.97
2023-09-29T13:56:46.403Z,4.80
2023-09-29T13:59:13.681Z,4.22
2023-09-29T14:01:43.588Z,4.28
2023-09-29T14:04:13.730Z,3.85
2023-09-29T14:06:40.903Z,3.28
2023-09-29T14:09:16.830Z,3.77
2023-09-29T14:11:45.635Z,3.75
2023-09-29T14:14:13.016Z,3.85
2023-09-29T14:16:41.626Z,3.50
2023-09-29T14:19:18.208Z,3.78
2023-09-29T14:22:15.909Z,3.60
2023-09-29T14:24:53.262Z,4.10
2023-09-29T14:27:25.540Z,5.43
2023-09-29T14:29:58.877Z,4.53
2023-09-29T14:32:28.468Z,4.03
2023-09-29T14:37:50.986Z,4.10
2023-09-29T14:40:23.194Z,4.25
2023-09-29T14:42:50.924Z,14.75
2023-09-29T14:45:31.473Z,4.20
2023-09-29T14:48:07.250Z,4.33
2023-09-29T14:50:42.817Z,4.20
2023-09-29T14:53:19.341Z,4.30
2023-09-29T14:56:09.057Z,3.95
2023-09-29T14:59:30.390Z,4.13
2023-09-29T15:02:22.177Z,4.13
2023-09-29T15:19:15.035Z,4.07
2023-09-29T15:22:08.312Z,3.92
2023-09-29T15:24:49.820Z,4.25
2023-09-29T15:27:50.428Z,4.60
2023-09-29T15:30:21.315Z,3.97
2023-09-29T15:44:10.478Z,4.38
2023-09-29T15:46:40.194Z,5.80
2023-09-29T15:49:07.331Z,4.03
2023-09-29T15:51:34.676Z,4.57
2023-09-29T15:54:04.177Z,4.25
2023-09-29T15:56:31.837Z,4.18
2023-09-29T15:58:59.045Z,4.30
2023-09-29T16:01:26.288Z,4.67
2023-09-29T16:03:53.533Z,4.15
2023-09-29T16:06:22.008Z,4.85
2023-09-29T16:08:49.434Z,4.65
2023-09-29T16:11:17.686Z,4.28
2023-09-29T16:13:48.412Z,4.60
2023-09-29T16:16:18.104Z,4.25
2023-09-29T16:18:45.363Z,4.15
2023-09-29T16:21:19.388Z,4.55
2023-09-29T16:23:47.905Z,4.78
2023-09-29T16:26:17.570Z,4.97
2023-09-29T16:28:45.333Z,4.22
2023-09-29T16:31:16.347Z,5.35
2023-09-29T16:33:45.770Z,4.80
2023-09-29T16:36:20.924Z,4.80
2023-09-29T16:38:48.317Z,5.20
2023-09-29T16:41:35.745Z,5.60
2023-09-29T16:44:02.960Z,5.43
2023-09-29T16:46:30.145Z,6.43
2023-09-29T16:48:57.423Z,5.53
2023-09-29T16:51:27.795Z,5.27
2023-09-29T16:53:55.385Z,6.20
2023-09-29T16:56:26.529Z,7.57
2023-09-29T16:58:53.799Z,8.35
2023-09-29T17:01:21.157Z,7.95
2023-09-29T17:03:48.505Z,6.97
2023-09-29T17:06:15.869Z,8.75
2023-09-29T17:08:43.116Z,11.45
2023-09-29T17:11:20.441Z,9.75
2023-09-29T17:13:47.990Z,12.48
2023-09-29T17:16:15.842Z,14.43
2023-09-29T17:18:46.590Z,14.23
2023-09-29T17:21:18.283Z,12.98
2023-09-29T17:23:46.441Z,13.23
2023-09-29T17:26:14.013Z,12.32
2023-09-29T17:28:41.275Z,13.40
2023-09-29T17:31:08.631Z,13.95
2023-09-29T17:33:39.410Z,12.95
2023-09-29T17:36:29.571Z,17.00
2023-09-29T17:46:17.695Z,13.77
2023-09-29T17:48:49.283Z,15.45
2023-09-29T17:57:39.474Z,20.30
2023-09-29T18:17:18.694Z,14.07
2023-09-29T18:19:58.418Z,12.93
2023-09-29T18:29:55.435Z,11.83
2023-09-29T18:32:23.926Z,11.13
2023-09-29T18:34:51.022Z,10.82
2023-09-29T18:37:18.018Z,11.43
2023-09-29T18:39:53.233Z,11.02
2023-09-29T18:42:21.718Z,10.90
2023-09-29T18:44:49.586Z,11.25
2023-09-29T18:47:16.872Z,11.20
2023-09-29T18:49:44.128Z,10.70
2023-09-29T18:52:12.112Z,10.38
2023-09-29T18:54:39.713Z,10.43
2023-09-29T18:57:07.301Z,10.77
2023-09-29T18:59:34.708Z,10.30
2023-09-29T19:02:02.334Z,10.95
2023-09-29T19:04:31.833Z,11.18
2023-09-29T19:06:59.517Z,9.97
2023-09-29T19:09:27.243Z,10.55
2023-09-29T19:11:57.188Z,9.57
2023-09-29T19:14:24.576Z,9.65
2023-09-29T19:16:51.706Z,10.27
2023-09-29T19:19:18.837Z,10.20
2023-09-29T19:21:45.903Z,10.40
2023-09-29T19:24:13.028Z,11.27
2023-09-29T19:26:40.124Z,11.65
2023-09-29T19:29:07.329Z,10.57
2023-09-29T19:31:36.100Z,10.17
2023-09-29T19:34:03.813Z,9.95
2023-09-29T19:36:32.430Z,10.93
2023-09-29T19:38:59.994Z,9.80
2023-09-29T19:41:30.530Z,10.05
2023-09-29T19:43:57.948Z,10.33
2023-09-29T19:46:25.067Z,10.45
2023-09-29T19:48:54.888Z,9.88
2023-09-29T19:51:23.393Z,9.23
2023-09-29T19:53:50.973Z,9.38
2023-09-29T19:56:21.411Z,9.70
2023-09-29T19:58:52.168Z,9.48
2023-09-29T20:01:21.494Z,9.27
2023-09-29T20:03:59.276Z,8.60
2023-09-29T20:06:26.954Z,10.35
2023-09-29T20:08:54.311Z,9.80
2023-09-29T20:11:22.658Z,8.77
2023-09-29T20:13:50.393Z,8.57
2023-09-29T20:16:19.106Z,8.43
2023-09-29T20:18:46.687Z,9.43
2023-09-29T20:21:13.995Z,8.73
2023-09-29T20:23:41.670Z,8.35
2023-09-29T20:26:09.038Z,8.35
2023-09-29T20:28:36.359Z,7.88
2023-09-29T20:31:03.609Z,7.90
2023-09-29T20:33:30.983Z,8.10
2023-09-29T20:35:58.164Z,8.38
2023-09-29T20:38:25.315Z,8.77
2023-09-29T20:40:52.554Z,8.38
2023-09-29T20:43:19.910Z,8.15
2023-09-29T20:45:48.811Z,8.13
2023-09-29T20:48:17.157Z,7.60
2023-09-29T20:50:44.546Z,8.45
2023-09-29T20:53:12.903Z,7.63
2023-09-29T20:55:40.342Z,7.72
2023-09-29T20:58:07.587Z,7.53
2023-09-29T21:00:35.266Z,8.13
2023-09-29T21:03:07.112Z,7.93
2023-09-29T21:05:34.314Z,8.15
2023-09-29T21:08:03.108Z,8.45
2023-09-29T21:10:30.304Z,8.00
2023-09-29T21:12:57.597Z,8.23
2023-09-29T21:15:26.004Z,8.00
2023-09-29T21:17:53.320Z,7.35
2023-09-29T21:20:20.659Z,7.30
2023-09-29T21:22:47.827Z,7.90
2023-09-29T21:25:15.441Z,7.00
2023-09-29T21:27:43.268Z,7.57
2023-09-29T21:30:11.068Z,7.13
2023-09-29T21:32:38.961Z,7.15
2023-09-29T21:35:06.864Z,7.27
2023-09-29T21:37:33.914Z,7.72
2023-09-29T21:40:00.984Z,7.45
2023-09-29T21:42:29.254Z,7.32
2023-09-29T21:44:56.475Z,6.70
2023-09-29T21:47:25.111Z,6.97
2023-09-29T21:49:52.423Z,7.05
2023-09-29T21:52:19.547Z,7.35
2023-09-29T21:54:46.783Z,7.05
2023-09-29T21:57:13.912Z,7.10
2023-09-29T21:59:41.036Z,7.20
2023-09-29T22:02:09.648Z,7.18
2023-09-29T22:04:37.107Z,6.85
2023-09-29T22:07:05.085Z,6.80
2023-09-29T22:09:32.512Z,6.72
2023-09-29T22:11:59.661Z,6.93
2023-09-29T22:14:26.834Z,6.93
2023-09-29T22:16:54.476Z,6.63
2023-09-29T22:19:21.707Z,7.03
2023-09-29T22:21:48.778Z,7.28
2023-09-29T22:24:19.383Z,7.20
2023-09-29T22:26:46.806Z,6.82
2023-09-29T22:29:13.836Z,7.85
2023-09-29T22:31:40.942Z,6.60
2023-09-29T22:34:08.165Z,7.43
2023-09-29T22:36:36.291Z,6.97
2023-09-29T22:39:03.792Z,7.20
2023-09-29T22:41:30.862Z,7.68
2023-09-29T22:43:58.781Z,7.35
2023-09-29T22:46:26.174Z,7.72
2023-09-29T22:48:53.269Z,7.67
2023-09-29T22:51:20.450Z,7.35
2023-09-29T22:53:48.063Z,7.03
2023-09-29T22:56:15.397Z,6.88
2023-09-29T22:58:42.651Z,7.07
2023-09-29T23:01:10.168Z,7.43
2023-09-29T23:03:37.601Z,6.80
2023-09-29T23:06:04.824Z,7.63
2023-09-29T23:08:33.208Z,7.20
2023-09-29T23:11:00.431Z,7.38
2023-09-29T23:13:27.447Z,7.67
2023-09-29T23:15:54.644Z,7.13
2023-09-29T23:18:22.754Z,6.65
2023-09-29T23:20:50.208Z,6.97
2023-09-29T23:23:17.340Z,6.70
2023-09-29T23:25:44.963Z,6.70
2023-09-29T23:28:12.400Z,6.85
2023-09-29T23:30:39.873Z,6.30
2023-09-29T23:33:07.235Z,7.38
2023-09-29T23:35:36.857Z,7.05
2023-09-29T23:38:05.453Z,7.30
2023-09-29T23:40:32.652Z,6.45
2023-09-29T23:42:59.888Z,6.70
2023-09-29T23:45:27.499Z,6.63
2023-09-29T23:47:54.753Z,6.88
2023-09-29T23:50:22.331Z,6.03
2023-09-29T23:52:49.480Z,6.90
2023-09-29T23:55:17.266Z,6.05
2023-09-29T23:57:45.019Z,6.13
